Ravels, Belgium
Current Conditions -  °F | °C
As of 3:25 AM on Wednesday 22 Oct 2014 (Local Time) from EHGR Reporting Station
Light Rain Light Rain  
Wind Chill:   Ceiling: 6200
Heat Index:   Visibility: 6mi
Dew Point:   Wind: 23mph
Humidity: 71%   Direction: 300°WNW
Pressure: 29.91"   Gusts: NA
Location:  51.37°N, 4.99°E
Report Text: EHGR 220125Z AUTO 30020KT 9999 R28/2800 -RA FEW019 SCT038 BKN062 09/04 Q1013 BLU 29019G32KT 9999 SCT020 SCT030 TEMPO 27028G40KT 3500 SHRA SCT010 BKN015CB
Loading
Personal Weather Stations






























Interactive Weather Map
Tropical Storm Tracking
New forecast layout! Learn more

10-Day Weather Forecast

Advertisements
Track Severe Weather on mobile